createdAt,value
2023-05-09T00:00:23.455Z,46.25
2023-05-09T00:05:26.284Z,48.03
2023-05-09T00:10:30.933Z,48.80
2023-05-09T00:15:33.591Z,50.88
2023-05-09T00:20:36.184Z,53.53
2023-05-09T00:25:40.113Z,53.80
2023-05-09T00:30:42.741Z,52.75
2023-05-09T00:35:45.301Z,57.15
2023-05-09T00:40:49.329Z,58.47
2023-05-09T00:45:52.157Z,56.80
2023-05-09T00:50:55.106Z,57.22
2023-05-09T00:56:01.014Z,54.30
2023-05-09T01:01:03.892Z,53.72
2023-05-09T01:06:14.206Z,55.88
2023-05-09T01:11:25.539Z,53.13
2023-05-09T01:16:36.288Z,55.88
2023-05-09T01:21:44.286Z,58.28
2023-05-09T01:27:07.093Z,57.42
2023-05-09T01:32:15.535Z,63.13
2023-05-09T01:37:23.267Z,62.85
2023-05-09T01:42:28.227Z,60.22
2023-05-09T01:47:32.378Z,59.88
2023-05-09T01:52:37.292Z,65.90
2023-05-09T01:57:41.163Z,68.00
2023-05-09T02:02:45.993Z,64.80
2023-05-09T02:07:49.493Z,66.80
2023-05-09T02:12:52.266Z,67.53
2023-05-09T02:17:56.693Z,69.82
2023-05-09T02:22:59.393Z,66.65
2023-05-09T02:28:03.527Z,63.17
2023-05-09T02:33:11.753Z,59.58
2023-05-09T02:38:15.442Z,62.33
2023-05-09T02:43:18.033Z,63.25
2023-05-09T02:48:21.960Z,61.30
2023-05-09T02:53:24.530Z,63.97
2023-05-09T02:58:27.185Z,61.95
2023-05-09T03:03:34.717Z,61.47
2023-05-09T03:08:37.447Z,62.38
2023-05-09T03:13:40.052Z,67.30
2023-05-09T03:18:44.034Z,68.18
2023-05-09T03:23:46.596Z,66.10
2023-05-09T03:28:49.676Z,61.20
2023-05-09T03:33:53.785Z,68.07
2023-05-09T03:38:56.383Z,69.40
2023-05-09T03:43:58.943Z,69.15
2023-05-09T03:49:04.331Z,68.43
2023-05-09T03:54:07.154Z,69.53
2023-05-09T03:59:09.716Z,71.30
2023-05-09T04:04:13.772Z,71.60
2023-05-09T04:09:16.502Z,66.88
2023-05-09T04:14:19.160Z,69.60
2023-05-09T04:19:23.157Z,67.07
2023-05-09T04:24:25.759Z,66.22
2023-05-09T04:29:28.425Z,65.13
2023-05-09T04:34:33.396Z,67.10
2023-05-09T04:39:35.984Z,68.22
2023-05-09T04:44:38.601Z,66.60
2023-05-09T04:49:42.644Z,66.85
2023-05-09T04:54:45.297Z,68.65
2023-05-09T04:59:47.872Z,66.85
2023-05-09T05:04:52.871Z,65.47
2023-05-09T05:09:56.955Z,63.92
2023-05-09T05:14:59.477Z,64.22
2023-05-09T05:20:06.371Z,61.65
2023-05-09T05:25:09.837Z,59.60
2023-05-09T05:30:15.428Z,61.58
2023-05-09T05:35:22.508Z,63.20
2023-05-09T05:40:25.195Z,56.80
2023-05-09T05:45:29.586Z,56.20
2023-05-09T05:50:33.966Z,52.72
2023-05-09T05:55:36.560Z,50.25
2023-05-09T06:00:39.181Z,46.60
2023-05-09T06:05:44.970Z,45.35
2023-05-09T06:10:47.600Z,43.92
2023-05-09T06:15:50.473Z,43.40
2023-05-09T06:20:54.415Z,41.40
2023-05-09T06:25:56.956Z,39.03
2023-05-09T06:30:59.618Z,37.03
2023-05-09T06:36:03.568Z,35.92
2023-05-09T06:41:06.428Z,35.03
2023-05-09T06:46:10.094Z,33.03
2023-05-09T06:51:14.118Z,30.52
2023-05-09T06:56:20.039Z,29.73
2023-05-09T07:01:22.967Z,26.00
2023-05-09T07:06:27.003Z,27.00
2023-05-09T07:11:29.679Z,24.45
2023-05-09T07:16:33.252Z,25.65
2023-05-09T07:21:38.580Z,25.42
2023-05-09T07:26:41.256Z,25.77
2023-05-09T07:31:43.907Z,25.27
2023-05-09T07:36:47.862Z,24.33
2023-05-09T07:41:50.412Z,20.80
2023-05-09T07:46:55.404Z,19.40
2023-05-09T07:51:59.452Z,21.55
2023-05-09T07:57:02.069Z,20.27
2023-05-09T08:02:04.745Z,21.25
2023-05-09T08:12:11.781Z,20.85
2023-05-09T08:17:16.206Z,20.08
2023-05-09T08:22:21.070Z,21.10
2023-05-09T08:27:24.262Z,21.20
2023-05-09T08:32:26.894Z,20.25
2023-05-09T08:47:36.772Z,19.17
2023-05-09T08:52:40.896Z,20.23
2023-05-09T08:57:43.791Z,19.85
2023-05-09T09:02:46.822Z,19.20
2023-05-09T09:07:51.614Z,19.02
2023-05-09T09:12:56.933Z,18.00
2023-05-09T09:18:07.136Z,15.77
2023-05-09T09:23:11.623Z,15.85
2023-05-09T09:28:14.307Z,13.75
2023-05-09T09:33:22.025Z,13.50
2023-05-09T09:38:26.789Z,13.50
2023-05-09T09:43:29.876Z,12.82
2023-05-09T09:48:34.605Z,11.45
2023-05-09T09:53:42.273Z,11.88
2023-05-09T09:58:44.930Z,11.63
2023-05-09T10:03:47.965Z,11.40
2023-05-09T10:08:52.176Z,11.57
2023-05-09T10:13:54.872Z,10.63
2023-05-09T10:18:57.667Z,10.82
2023-05-09T10:24:02.388Z,9.60
2023-05-09T10:29:11.593Z,9.02
2023-05-09T10:34:14.849Z,10.45
2023-05-09T10:39:19.897Z,9.52
2023-05-09T10:44:24.240Z,9.68
2023-05-09T10:49:27.012Z,9.70
2023-05-09T10:54:33.509Z,9.18
2023-05-09T10:59:39.035Z,7.63
2023-05-09T11:04:41.991Z,8.40
2023-05-09T11:09:46.001Z,9.13
2023-05-09T11:14:50.121Z,9.25
2023-05-09T11:20:01.111Z,8.48
2023-05-09T11:25:07.315Z,10.80
2023-05-09T11:30:12.025Z,12.77
2023-05-09T11:35:17.070Z,14.70
2023-05-09T11:40:22.696Z,13.48
2023-05-09T11:45:26.910Z,13.65
2023-05-09T11:50:29.600Z,15.43
2023-05-09T11:55:33.624Z,14.73
2023-05-09T12:00:37.225Z,12.88
2023-05-09T12:05:40.154Z,14.65
2023-05-09T12:10:44.095Z,14.23
2023-05-09T12:15:46.698Z,15.05
2023-05-09T12:25:56.528Z,13.98
2023-05-09T12:30:59.874Z,13.30
2023-05-09T12:36:04.770Z,13.93
2023-05-09T12:41:22.537Z,13.05
2023-05-09T12:46:32.905Z,12.32
2023-05-09T12:51:35.805Z,12.35
2023-05-09T12:56:40.351Z,12.48
2023-05-09T13:01:43.108Z,12.60
2023-05-09T13:06:49.321Z,11.30
2023-05-09T13:11:54.541Z,11.27
2023-05-09T13:16:57.229Z,10.85
2023-05-09T13:21:59.900Z,10.32
2023-05-09T13:32:07.457Z,9.57
2023-05-09T13:37:10.030Z,9.57
2023-05-09T13:42:14.017Z,9.40
2023-05-09T13:47:16.610Z,9.00
2023-05-09T13:52:19.416Z,9.88
2023-05-09T14:02:25.968Z,8.65
2023-05-09T14:12:32.722Z,7.78
2023-05-09T14:17:35.478Z,6.95
2023-05-09T14:27:42.169Z,5.03
2023-05-09T14:32:44.901Z,6.53
2023-05-09T14:37:47.755Z,5.80
2023-05-09T14:42:51.822Z,6.15
2023-05-09T14:47:54.418Z,5.72
2023-05-09T14:52:57.090Z,5.50
2023-05-09T14:58:01.123Z,5.18
2023-05-09T15:03:04.332Z,5.20
2023-05-09T15:08:07.831Z,4.15
2023-05-09T15:13:12.307Z,3.47
2023-05-09T15:18:16.624Z,3.72
2023-05-09T15:23:19.380Z,3.50
2023-05-09T15:28:23.783Z,2.60
2023-05-09T15:33:26.733Z,3.00
2023-05-09T15:43:33.152Z,2.30
2023-05-09T15:48:35.723Z,2.10
2023-05-09T15:53:38.350Z,2.42
2023-05-09T15:58:42.290Z,1.95
2023-05-09T16:03:45.066Z,1.80
2023-05-09T16:08:47.784Z,1.50
2023-05-09T16:13:51.811Z,1.95
2023-05-09T16:18:54.446Z,1.60
2023-05-09T16:23:58.374Z,1.85
2023-05-09T16:29:03.103Z,2.00
2023-05-09T16:34:05.723Z,1.98
2023-05-09T16:39:08.674Z,2.30
2023-05-09T16:44:12.922Z,2.60
2023-05-09T16:49:16.013Z,3.08
2023-05-09T16:59:22.508Z,3.08
2023-05-09T17:04:25.680Z,3.60
2023-05-09T17:09:30.363Z,4.03
2023-05-09T17:14:34.320Z,4.55
2023-05-09T17:19:36.906Z,4.50
2023-05-09T17:24:39.480Z,5.10
2023-05-09T17:29:43.403Z,5.25
2023-05-09T17:34:45.971Z,4.90
2023-05-09T17:39:48.567Z,4.93
2023-05-09T17:44:53.128Z,5.38
2023-05-09T17:49:55.711Z,7.10
2023-05-09T17:54:58.405Z,7.10
2023-05-09T18:00:02.365Z,8.00
2023-05-09T18:05:05.762Z,7.93
2023-05-09T18:10:10.056Z,9.02
2023-05-09T18:15:14.334Z,7.55
2023-05-09T18:20:17.253Z,8.13
2023-05-09T18:30:24.359Z,8.60
2023-05-09T18:35:27.000Z,9.18
2023-05-09T18:40:29.593Z,9.07
2023-05-09T18:45:33.765Z,8.10
2023-05-09T18:50:37.040Z,8.13
2023-05-09T18:55:39.906Z,8.77
2023-05-09T19:00:44.559Z,9.35
2023-05-09T19:05:47.437Z,10.75
2023-05-09T19:10:49.978Z,10.70
2023-05-09T19:15:53.887Z,12.07
2023-05-09T19:20:58.252Z,11.98
2023-05-09T19:26:00.882Z,10.57
2023-05-09T19:31:05.046Z,10.50
2023-05-09T19:36:08.090Z,10.63
2023-05-09T19:41:10.921Z,10.32
2023-05-09T19:46:14.999Z,11.27
2023-05-09T19:51:17.687Z,10.82
2023-05-09T19:56:20.523Z,11.57
2023-05-09T20:01:27.777Z,11.93
2023-05-09T20:06:30.689Z,12.68
2023-05-09T20:11:33.908Z,13.25
2023-05-09T20:21:42.088Z,13.18
2023-05-09T20:26:44.838Z,13.20
2023-05-09T20:31:48.012Z,12.65
2023-05-09T20:41:58.686Z,13.23
2023-05-09T20:47:01.345Z,14.73
2023-05-09T20:52:06.472Z,14.57
2023-05-09T20:57:09.267Z,14.73
2023-05-09T21:02:30.095Z,14.90
2023-05-09T21:07:34.330Z,14.55
2023-05-09T21:12:37.159Z,15.32
2023-05-09T21:17:40.873Z,14.65
2023-05-09T21:22:44.919Z,15.20
2023-05-09T21:27:47.642Z,13.63
2023-05-09T21:32:51.900Z,14.38
2023-05-09T21:37:56.068Z,15.13
2023-05-09T21:42:58.743Z,14.88
2023-05-09T21:48:01.676Z,15.10
2023-05-09T21:53:05.938Z,15.80
2023-05-09T21:58:08.483Z,16.05
2023-05-09T22:03:11.290Z,17.00
2023-05-09T22:08:15.190Z,17.40
2023-05-09T22:13:17.761Z,19.27
2023-05-09T22:18:20.248Z,18.40
2023-05-09T22:23:25.305Z,21.20
2023-05-09T22:28:28.033Z,20.30
2023-05-09T22:33:30.628Z,21.25
2023-05-09T22:38:34.529Z,20.50
2023-05-09T22:43:39.575Z,19.83
2023-05-09T22:48:42.630Z,20.50
2023-05-09T22:54:07.267Z,19.35
2023-05-09T22:59:10.830Z,14.13
2023-05-09T23:04:13.752Z,7.10
2023-05-09T23:09:18.668Z,6.10
2023-05-09T23:14:21.616Z,8.35
2023-05-09T23:19:24.281Z,7.53
2023-05-09T23:24:28.223Z,8.73
2023-05-09T23:29:30.995Z,9.77
2023-05-09T23:34:33.830Z,8.18
2023-05-09T23:39:38.858Z,9.30
2023-05-09T23:44:41.504Z,9.65
2023-05-09T23:49:44.340Z,9.23
2023-05-09T23:54:48.311Z,10.02
2023-05-09T23:59:51.896Z,9.70
